Terminal Aerodrome Forecast
Issued by NWS Wilmington, OH

Current Version | Previous Version | Graphics & Text | Print | Product List | Glossary On
Versions: 1 2 3 4 5 6 7 8 9 10 11 12 13 14 15 16 17 18 19
000
FTUS41 KILN 281300 AAA
TAFILN
TAF AMD
KILN 281346Z 2814/2912 VRB02KT 3SM BR SKC
     FM281500 14005KT P6SM SCT250
     FM282200 14008KT P6SM OVC200
     FM291000 17010KT P6SM BKN060 OVC120=

USA.gov is the U.S. government's official web portal to all federal, state and local government web resources and services.